createdAt,value
2018-12-17T00:01:03.773Z,100793.26
2018-12-17T00:03:32.115Z,100786.69
2018-12-17T00:06:00.598Z,100783.82
2018-12-17T00:08:32.029Z,100783.02
2018-12-17T00:10:59.911Z,100781.56
2018-12-17T00:13:28.228Z,100783.48
2018-12-17T00:15:56.557Z,100781.89
2018-12-17T00:18:24.920Z,100781.72
2018-12-17T00:20:53.424Z,100778.67
2018-12-17T00:23:21.757Z,100780.11
2018-12-17T00:25:50.153Z,100777.23
2018-12-17T00:28:18.464Z,100774.37
2018-12-17T00:30:46.859Z,100771.16
2018-12-17T00:33:15.292Z,100762.78
2018-12-17T00:35:43.615Z,100767.81
2018-12-17T00:38:12.000Z,100767.17
2018-12-17T00:40:40.391Z,100771.72
2018-12-17T00:43:08.861Z,100763.67
2018-12-17T00:45:37.172Z,100771.02
2018-12-17T00:48:05.519Z,100764.22
2018-12-17T00:50:33.864Z,100765.73
2018-12-17T00:53:02.207Z,100759.73
2018-12-17T00:55:30.541Z,100764.70
2018-12-17T00:57:58.867Z,100763.65
2018-12-17T01:00:27.359Z,100767.52
2018-12-17T01:02:55.687Z,100768.63
2018-12-17T01:05:24.109Z,100766.63
2018-12-17T01:07:52.419Z,100769.58
2018-12-17T01:10:20.780Z,100763.99
2018-12-17T01:12:49.171Z,100766.80
2018-12-17T01:15:17.520Z,100767.33
2018-12-17T01:17:45.860Z,100769.73
2018-12-17T01:20:14.291Z,100770.36
2018-12-17T01:22:42.656Z,100775.88
2018-12-17T01:25:11.055Z,100767.03
2018-12-17T01:27:39.385Z,100776.15
2018-12-17T01:30:08.942Z,100782.55
2018-12-17T01:32:37.466Z,100780.45
2018-12-17T01:35:06.215Z,100779.34
2018-12-17T01:37:34.656Z,100779.17
2018-12-17T01:40:03.161Z,100783.66
2018-12-17T01:42:31.530Z,100785.91
2018-12-17T01:44:59.875Z,100781.41
2018-12-17T01:47:28.211Z,100785.65
2018-12-17T01:49:56.548Z,100782.92
2018-12-17T01:52:24.875Z,100779.75
2018-12-17T01:54:53.218Z,100768.88
2018-12-17T01:57:21.549Z,100766.42
2018-12-17T01:59:49.903Z,100767.77
2018-12-17T02:02:18.343Z,100762.02
2018-12-17T02:04:46.659Z,100769.67
2018-12-17T02:07:15.352Z,100765.17
2018-12-17T02:09:43.966Z,100774.77
2018-12-17T02:12:12.362Z,100767.17
2018-12-17T02:14:41.178Z,100766.52
2018-12-17T02:17:09.529Z,100775.89
2018-12-17T02:19:37.912Z,100787.84
2018-12-17T02:22:06.302Z,100793.67
2018-12-17T02:24:34.740Z,100789.53
2018-12-17T02:27:03.060Z,100797.55
2018-12-17T02:29:31.772Z,100796.65
2018-12-17T02:32:00.115Z,100800.85
2018-12-17T02:34:28.564Z,100803.66
2018-12-17T02:36:56.935Z,100811.80
2018-12-17T02:39:25.250Z,100812.44
2018-12-17T02:41:53.569Z,100815.16
2018-12-17T02:44:22.079Z,100819.97
2018-12-17T02:46:50.502Z,100823.31
2018-12-17T02:49:18.886Z,100822.41
2018-12-17T02:51:47.244Z,100821.38
2018-12-17T02:54:15.563Z,100818.73
2018-12-17T02:56:43.891Z,100820.59
2018-12-17T02:59:12.236Z,100817.16
2018-12-17T03:01:40.585Z,100815.20
2018-12-17T03:04:08.927Z,100819.61
2018-12-17T03:06:37.304Z,100825.64
2018-12-17T03:09:06.725Z,100830.51
2018-12-17T03:11:35.164Z,100826.55
2018-12-17T03:14:03.591Z,100826.14
2018-12-17T03:16:31.928Z,100820.08
2018-12-17T03:19:00.261Z,100823.52
2018-12-17T03:21:28.622Z,100827.42
2018-12-17T03:23:57.015Z,100829.83
2018-12-17T03:26:25.338Z,100832.14
2018-12-17T03:28:53.662Z,100825.98
2018-12-17T03:31:22.014Z,100832.23
2018-12-17T03:33:50.329Z,100833.36
2018-12-17T03:36:18.763Z,100826.48
2018-12-17T03:38:47.067Z,100832.86
2018-12-17T03:41:15.409Z,100836.46
2018-12-17T03:43:43.755Z,100835.77
2018-12-17T03:46:12.078Z,100835.18
2018-12-17T03:48:40.436Z,100835.92
2018-12-17T03:51:08.793Z,100846.89
2018-12-17T03:53:37.218Z,100842.89
2018-12-17T03:56:05.532Z,100848.73
2018-12-17T03:58:33.881Z,100849.44
2018-12-17T04:01:02.277Z,100843.09
2018-12-17T04:03:30.639Z,100844.55
2018-12-17T04:05:59.131Z,100841.56
2018-12-17T04:08:27.525Z,100848.44
2018-12-17T04:10:55.903Z,100848.22
2018-12-17T04:13:24.281Z,100842.75
2018-12-17T04:15:52.633Z,100846.56
2018-12-17T04:18:21.278Z,100855.88
2018-12-17T04:20:49.639Z,100853.06
2018-12-17T04:23:17.965Z,100856.00
2018-12-17T04:25:46.336Z,100850.75
2018-12-17T04:28:14.735Z,100850.72
2018-12-17T04:30:43.222Z,100848.59
2018-12-17T04:33:11.512Z,100841.75
2018-12-17T04:35:39.849Z,100844.09
2018-12-17T04:38:08.175Z,100841.90
2018-12-17T04:40:36.526Z,100841.39
2018-12-17T04:43:04.849Z,100838.33
2018-12-17T04:45:33.268Z,100842.20
2018-12-17T04:48:01.612Z,100852.27
2018-12-17T04:50:29.952Z,100852.19
2018-12-17T04:52:58.275Z,100858.44
2018-12-17T04:55:26.616Z,100868.14
2018-12-17T04:57:55.250Z,100877.64
2018-12-17T05:00:23.652Z,100877.59
2018-12-17T05:02:51.993Z,100873.69
2018-12-17T05:05:20.371Z,100872.76
2018-12-17T05:07:48.725Z,100871.48
2018-12-17T05:10:17.077Z,100866.76
2018-12-17T05:12:45.389Z,100871.61
2018-12-17T05:15:13.727Z,100873.62
2018-12-17T05:17:42.075Z,100868.95
2018-12-17T05:20:11.281Z,100877.27
2018-12-17T05:22:39.695Z,100877.41
2018-12-17T05:25:08.219Z,100882.48
2018-12-17T05:27:36.550Z,100881.81
2018-12-17T05:30:06.270Z,100883.61
2018-12-17T05:32:34.614Z,100891.64
2018-12-17T05:35:02.942Z,100893.35
2018-12-17T05:37:31.362Z,100891.31
2018-12-17T05:39:59.719Z,100895.52
2018-12-17T05:42:28.060Z,100900.25
2018-12-17T05:44:56.384Z,100902.80
2018-12-17T05:47:24.726Z,100905.04
2018-12-17T05:49:53.060Z,100904.09
2018-12-17T05:52:21.781Z,100902.77
2018-12-17T05:54:50.108Z,100910.60
2018-12-17T05:57:18.472Z,100920.75
2018-12-17T05:59:46.896Z,100919.87
2018-12-17T06:02:15.350Z,100916.96
2018-12-17T06:04:43.650Z,100919.59
2018-12-17T06:07:12.041Z,100918.36
2018-12-17T06:09:40.423Z,100922.40
2018-12-17T06:12:08.770Z,100926.42
2018-12-17T06:14:37.115Z,100921.20
2018-12-17T06:17:05.477Z,100934.25
2018-12-17T06:19:33.815Z,100925.66
2018-12-17T06:22:02.201Z,100933.92
2018-12-17T06:24:30.601Z,100933.42
2018-12-17T06:26:59.060Z,100936.05
2018-12-17T06:29:27.371Z,100941.09
2018-12-17T06:31:55.734Z,100937.61
2018-12-17T06:34:24.161Z,100943.25
2018-12-17T06:36:52.519Z,100950.04
2018-12-17T06:39:21.385Z,100948.67
2018-12-17T06:41:49.792Z,100953.45
2018-12-17T06:44:18.149Z,100951.42
2018-12-17T06:46:46.503Z,100954.36
2018-12-17T06:49:14.830Z,100954.91
2018-12-17T06:51:43.651Z,100960.76
2018-12-17T06:54:12.109Z,100961.44
2018-12-17T06:56:40.455Z,100959.33
2018-12-17T06:59:08.819Z,100970.36
2018-12-17T07:01:37.341Z,100969.30
2018-12-17T07:04:05.659Z,100975.50
2018-12-17T07:06:34.004Z,100978.12
2018-12-17T07:09:02.326Z,100977.11
2018-12-17T07:11:30.655Z,100981.56
2018-12-17T07:14:00.197Z,100983.91
2018-12-17T07:16:28.776Z,100982.94
2018-12-17T07:18:57.171Z,100984.28
2018-12-17T07:21:25.599Z,100987.62
2018-12-17T07:23:53.961Z,100992.27
2018-12-17T07:26:22.304Z,100997.64
2018-12-17T07:28:50.738Z,100996.67
2018-12-17T07:31:19.105Z,101003.03
2018-12-17T07:33:47.457Z,101004.08
2018-12-17T07:36:16.028Z,101012.08
2018-12-17T07:38:44.467Z,101015.66
2018-12-17T07:41:12.923Z,101015.16
2018-12-17T07:43:41.686Z,101022.47
2018-12-17T07:46:10.098Z,101020.17
2018-12-17T07:48:38.448Z,101020.80
2018-12-17T07:51:06.779Z,101027.42
2018-12-17T07:53:35.120Z,101028.35
2018-12-17T07:56:03.455Z,101033.17
2018-12-17T07:58:31.828Z,101034.10
2018-12-17T08:01:00.318Z,101035.39
2018-12-17T08:03:28.771Z,101045.73
2018-12-17T08:05:57.120Z,101047.75
2018-12-17T08:08:25.504Z,101053.26
2018-12-17T08:10:53.917Z,101058.35
2018-12-17T08:13:23.127Z,101056.80
2018-12-17T08:15:51.515Z,101061.91
2018-12-17T08:18:23.208Z,101063.93
2018-12-17T08:20:51.938Z,101063.02
2018-12-17T08:23:20.244Z,101071.01
2018-12-17T08:25:48.568Z,101072.15
2018-12-17T08:28:17.048Z,101066.33
2018-12-17T08:30:45.967Z,101076.05
2018-12-17T08:33:14.472Z,101072.64
2018-12-17T08:35:42.792Z,101082.21
2018-12-17T08:38:11.182Z,101088.06
2018-12-17T08:40:39.541Z,101092.56
2018-12-17T08:43:07.865Z,101091.41
2018-12-17T08:45:36.191Z,101094.45
2018-12-17T08:48:04.515Z,101094.68
2018-12-17T08:50:32.935Z,101101.52
2018-12-17T08:53:01.343Z,101100.34
2018-12-17T08:55:29.844Z,101107.17
2018-12-17T08:58:01.909Z,101104.62
2018-12-17T09:00:30.377Z,101106.91
2018-12-17T09:02:58.704Z,101108.72
2018-12-17T09:05:27.037Z,101111.70
2018-12-17T09:07:55.451Z,101113.61
2018-12-17T09:10:23.771Z,101120.78
2018-12-17T09:12:52.103Z,101123.72
2018-12-17T09:15:20.544Z,101129.17
2018-12-17T09:17:48.901Z,101127.28
2018-12-17T09:20:17.268Z,101127.12
2018-12-17T09:22:45.622Z,101132.57
2018-12-17T09:25:15.014Z,101134.44
2018-12-17T09:27:43.376Z,101143.34
2018-12-17T09:30:18.116Z,101139.97
2018-12-17T09:32:42.355Z,101146.20
2018-12-17T09:35:10.770Z,101156.39
2018-12-17T09:37:39.107Z,101160.98
2018-12-17T09:40:07.952Z,101167.75
2018-12-17T09:42:36.311Z,101166.36
2018-12-17T09:45:06.331Z,101166.16
2018-12-17T09:47:34.679Z,101171.25
2018-12-17T09:50:03.756Z,101169.08
2018-12-17T09:52:32.114Z,101169.33
2018-12-17T09:55:00.447Z,101170.08
2018-12-17T09:57:28.839Z,101180.95
2018-12-17T09:59:57.184Z,101182.85
2018-12-17T10:02:25.547Z,101180.56
2018-12-17T10:04:53.912Z,101179.61
2018-12-17T10:07:22.244Z,101174.70
2018-12-17T10:09:50.627Z,101186.27
2018-12-17T10:12:18.980Z,101175.70
2018-12-17T10:14:47.372Z,101175.80
2018-12-17T10:17:15.704Z,101179.77
2018-12-17T10:19:44.012Z,101176.80
2018-12-17T10:22:12.341Z,101173.67
2018-12-17T10:24:40.703Z,101179.30
2018-12-17T10:27:09.042Z,101178.00
2018-12-17T10:29:37.433Z,101178.25
2018-12-17T10:32:05.940Z,101186.95
2018-12-17T10:34:34.289Z,101191.59
2018-12-17T10:37:02.713Z,101187.40
2018-12-17T10:39:31.066Z,101182.24
2018-12-17T10:41:59.513Z,101181.36
2018-12-17T10:44:28.091Z,101184.86
2018-12-17T10:46:56.588Z,101181.05
2018-12-17T10:49:24.931Z,101184.62
2018-12-17T10:51:53.265Z,101184.03
2018-12-17T10:54:21.830Z,101182.02
2018-12-17T10:56:50.306Z,101188.38
2018-12-17T10:59:18.753Z,101180.61
2018-12-17T11:01:50.420Z,101180.84
2018-12-17T11:04:18.779Z,101184.67
2018-12-17T11:06:47.144Z,101182.96
2018-12-17T11:09:15.495Z,101187.91
2018-12-17T11:11:43.865Z,101186.00
2018-12-17T11:14:12.222Z,101184.22
2018-12-17T11:16:40.561Z,101183.62
2018-12-17T11:19:08.982Z,101189.52
2018-12-17T11:21:37.442Z,101187.23
2018-12-17T11:24:05.926Z,101191.28
2018-12-17T11:26:34.305Z,101192.19
2018-12-17T11:29:02.647Z,101191.95
2018-12-17T11:31:31.146Z,101196.84
2018-12-17T11:33:59.534Z,101198.44
2018-12-17T11:36:27.847Z,101194.57
2018-12-17T11:38:56.202Z,101204.11
2018-12-17T11:41:24.561Z,101200.10
2018-12-17T11:43:52.907Z,101196.48
2018-12-17T11:46:21.300Z,101187.80
2018-12-17T11:48:50.209Z,101189.08
2018-12-17T11:51:18.693Z,101188.55
2018-12-17T11:53:47.134Z,101186.09
2018-12-17T11:56:15.471Z,101193.11
2018-12-17T11:58:43.826Z,101192.73
2018-12-17T12:01:12.948Z,101193.05
2018-12-17T12:03:41.760Z,101199.61
2018-12-17T12:06:14.020Z,101198.77
2018-12-17T12:08:40.621Z,101199.84
2018-12-17T12:11:08.973Z,101200.20
2018-12-17T12:13:37.408Z,101193.50
2018-12-17T12:16:05.916Z,101197.70
2018-12-17T12:18:34.243Z,101203.84
2018-12-17T12:21:02.617Z,101210.08
2018-12-17T12:23:30.959Z,101206.87
2018-12-17T12:25:59.306Z,101206.56
2018-12-17T12:28:27.673Z,101216.10
2018-12-17T12:31:00.460Z,101213.67
2018-12-17T12:33:26.454Z,101219.00
2018-12-17T12:35:54.902Z,101219.24
2018-12-17T12:38:23.411Z,101225.38
2018-12-17T12:40:51.740Z,101227.99
2018-12-17T12:43:20.178Z,101234.97
2018-12-17T12:45:48.639Z,101235.33
2018-12-17T12:48:18.000Z,101230.98
2018-12-17T12:50:46.651Z,101237.11
2018-12-17T12:53:15.025Z,101244.16
2018-12-17T12:55:43.392Z,101257.23
2018-12-17T12:58:12.490Z,101255.67
2018-12-17T13:00:40.840Z,101258.56
2018-12-17T13:03:09.415Z,101255.80
2018-12-17T13:05:37.909Z,101261.41
2018-12-17T13:08:06.284Z,101265.23
2018-12-17T13:10:34.596Z,101270.54
2018-12-17T13:13:04.256Z,101277.41
2018-12-17T13:15:32.626Z,101272.77
2018-12-17T13:18:00.967Z,101276.86
2018-12-17T13:20:29.380Z,101282.17
2018-12-17T13:22:57.720Z,101284.33
2018-12-17T13:25:27.040Z,101287.55
2018-12-17T13:27:55.426Z,101288.68
2018-12-17T13:30:23.756Z,101294.08
2018-12-17T13:32:53.258Z,101293.61
2018-12-17T13:35:21.689Z,101294.56
2018-12-17T13:37:52.323Z,101298.84
2018-12-17T13:40:20.720Z,101299.67
2018-12-17T13:42:49.031Z,101308.00
2018-12-17T13:45:17.390Z,101310.98
2018-12-17T13:47:45.725Z,101312.38
2018-12-17T13:53:14.912Z,101313.50
2018-12-17T13:55:43.236Z,101318.53
2018-12-17T13:58:12.102Z,101321.13
2018-12-17T14:00:40.416Z,101320.84
2018-12-17T14:03:08.849Z,101321.09
2018-12-17T14:05:38.463Z,101327.00
2018-12-17T14:08:06.907Z,101326.30
2018-12-17T14:10:40.920Z,101324.81
2018-12-17T14:13:09.438Z,101318.39
2018-12-17T14:15:43.468Z,101324.58
2018-12-17T14:21:17.626Z,101323.44
2018-12-17T14:23:46.063Z,101332.73
2018-12-17T14:26:14.443Z,101338.34
2018-12-17T14:28:42.747Z,101343.64
2018-12-17T14:31:11.080Z,101352.49
2018-12-17T14:33:39.427Z,101363.79
2018-12-17T14:36:09.175Z,101359.19
2018-12-17T14:38:37.824Z,101366.63
2018-12-17T14:41:06.178Z,101376.22
2018-12-17T14:43:34.498Z,101382.27
2018-12-17T14:46:02.979Z,101393.81
2018-12-17T14:48:31.758Z,101406.22
2018-12-17T14:51:00.084Z,101409.72
2018-12-17T14:53:28.434Z,101416.44
2018-12-17T14:55:56.776Z,101420.03
2018-12-17T14:58:25.111Z,101428.97
2018-12-17T15:00:53.533Z,101431.25
2018-12-17T15:03:22.001Z,101432.65
2018-12-17T15:05:50.308Z,101433.75
2018-12-17T15:08:18.648Z,101431.92
2018-12-17T15:10:47.017Z,101423.97
2018-12-17T15:13:15.376Z,101427.73
2018-12-17T15:15:43.744Z,101445.08
2018-12-17T15:18:12.114Z,101447.06
2018-12-17T15:20:40.502Z,101447.05
2018-12-17T15:23:08.820Z,101459.39
2018-12-17T15:25:37.270Z,101465.18
2018-12-17T15:28:05.712Z,101467.81
2018-12-17T15:30:34.182Z,101468.83
2018-12-17T15:33:02.553Z,101474.42
2018-12-17T15:35:30.928Z,101475.77
2018-12-17T15:37:59.265Z,101479.34
2018-12-17T15:40:27.653Z,101487.00
2018-12-17T15:42:55.989Z,101490.92
2018-12-17T15:45:24.358Z,101499.57
2018-12-17T15:47:52.678Z,101502.42
2018-12-17T15:50:21.006Z,101515.97
2018-12-17T15:52:49.377Z,101525.77
2018-12-17T15:55:17.742Z,101533.18
2018-12-17T15:57:46.080Z,101537.81
2018-12-17T16:00:14.436Z,101540.19
2018-12-17T16:02:42.856Z,101552.95
2018-12-17T16:05:11.197Z,101547.53
2018-12-17T16:07:39.758Z,101558.71
2018-12-17T16:10:08.175Z,101556.59
2018-12-17T16:12:36.564Z,101565.52
2018-12-17T16:15:06.209Z,101568.56
2018-12-17T16:17:34.570Z,101582.45
2018-12-17T16:22:32.297Z,101582.03
2018-12-17T16:25:00.832Z,101585.34
2018-12-17T16:27:29.298Z,101589.64
2018-12-17T16:29:57.634Z,101583.16
2018-12-17T16:32:26.004Z,101590.89
2018-12-17T16:34:55.268Z,101593.23
2018-12-17T16:37:23.620Z,101596.23
2018-12-17T16:39:51.928Z,101598.52
2018-12-17T16:42:20.353Z,101605.95
2018-12-17T16:44:48.863Z,101612.39
2018-12-17T16:47:17.265Z,101607.80
2018-12-17T16:49:45.601Z,101613.89
2018-12-17T16:52:13.976Z,101607.88
2018-12-17T16:54:42.382Z,101611.42
2018-12-17T16:57:10.747Z,101604.66
2018-12-17T16:59:39.075Z,101615.33
2018-12-17T17:02:07.535Z,101613.08
2018-12-17T17:04:35.951Z,101614.45
2018-12-17T17:07:04.349Z,101613.24
2018-12-17T17:09:32.731Z,101617.58
2018-12-17T17:12:01.106Z,101619.29
2018-12-17T17:14:29.711Z,101612.36
2018-12-17T17:16:58.142Z,101617.45
2018-12-17T17:19:26.576Z,101616.98
2018-12-17T17:21:54.929Z,101619.69
2018-12-17T17:24:23.253Z,101621.07
2018-12-17T17:26:51.624Z,101620.90
2018-12-17T17:29:20.042Z,101618.91
2018-12-17T17:31:48.386Z,101625.19
2018-12-17T17:34:16.779Z,101631.42
2018-12-17T17:36:45.112Z,101632.11
2018-12-17T17:39:13.441Z,101636.28
2018-12-17T17:41:41.755Z,101640.70
2018-12-17T17:44:10.158Z,101639.41
2018-12-17T17:46:38.502Z,101647.18
2018-12-17T17:49:06.822Z,101651.81
2018-12-17T17:51:35.139Z,101658.36
2018-12-17T17:54:03.565Z,101653.20
2018-12-17T17:56:31.968Z,101661.88
2018-12-17T17:59:00.339Z,101661.00
2018-12-17T18:01:28.683Z,101663.67
2018-12-17T18:03:57.060Z,101660.69
2018-12-17T18:06:25.719Z,101670.95
2018-12-17T18:08:54.032Z,101678.13
2018-12-17T18:11:22.359Z,101678.82
2018-12-17T18:13:50.710Z,101685.93
2018-12-17T18:16:19.097Z,101688.67
2018-12-17T18:18:47.456Z,101692.53
2018-12-17T18:21:15.831Z,101689.39
2018-12-17T18:23:44.152Z,101693.98
2018-12-17T18:26:12.485Z,101699.95
2018-12-17T18:28:40.930Z,101701.41
2018-12-17T18:31:09.375Z,101698.75
2018-12-17T18:33:37.736Z,101709.06
2018-12-17T18:36:06.072Z,101714.80
2018-12-17T18:38:34.441Z,101712.13
2018-12-17T18:41:02.831Z,101714.45
2018-12-17T18:43:31.164Z,101715.11
2018-12-17T18:45:59.519Z,101717.54
2018-12-17T18:48:28.157Z,101718.02
2018-12-17T18:50:56.553Z,101724.77
2018-12-17T18:53:24.878Z,101725.83
2018-12-17T18:55:54.379Z,101731.14
2018-12-17T18:58:22.816Z,101736.48
2018-12-17T19:00:51.220Z,101741.89
2018-12-17T19:03:19.604Z,101744.32
2018-12-17T19:05:47.978Z,101748.92
2018-12-17T19:08:16.333Z,101744.12
2018-12-17T19:10:50.964Z,101746.14
2018-12-17T19:13:19.313Z,101748.47
2018-12-17T19:15:47.757Z,101751.00
2018-12-17T19:18:16.221Z,101759.31
2018-12-17T19:20:44.697Z,101758.38
2018-12-17T19:23:13.167Z,101761.69
2018-12-17T19:25:41.582Z,101760.69
2018-12-17T19:28:10.065Z,101767.00
2018-12-17T19:30:38.433Z,101767.25
2018-12-17T19:33:06.860Z,101767.94
2018-12-17T19:35:35.253Z,101772.37
2018-12-17T19:38:03.645Z,101779.60
2018-12-17T19:40:32.027Z,101780.58
2018-12-17T19:43:00.391Z,101787.91
2018-12-17T19:45:28.768Z,101782.03
2018-12-17T19:47:57.141Z,101782.84
2018-12-17T19:50:25.482Z,101785.11
2018-12-17T19:52:53.790Z,101791.92
2018-12-17T19:55:22.144Z,101787.11
2018-12-17T19:57:50.579Z,101791.10
2018-12-17T20:00:19.531Z,101789.16
2018-12-17T20:02:47.936Z,101786.19
2018-12-17T20:05:16.288Z,101779.39
2018-12-17T20:07:44.623Z,101787.91
2018-12-17T20:10:15.035Z,101787.13
2018-12-17T20:12:43.379Z,101784.17
2018-12-17T20:15:11.903Z,101783.77
2018-12-17T20:17:40.297Z,101789.13
2018-12-17T20:20:08.736Z,101792.39
2018-12-17T20:22:37.141Z,101801.39
2018-12-17T20:25:05.712Z,101796.72
2018-12-17T20:27:34.100Z,101805.17
2018-12-17T20:30:02.555Z,101804.36
2018-12-17T20:32:30.957Z,101805.17
2018-12-17T20:34:59.383Z,101808.77
2018-12-17T20:37:27.729Z,101810.09
2018-12-17T20:39:56.158Z,101814.69
2018-12-17T20:42:24.642Z,101819.66
2018-12-17T20:44:53.074Z,101827.96
2018-12-17T20:47:21.457Z,101830.59
2018-12-17T20:49:49.845Z,101832.80
2018-12-17T20:52:18.279Z,101837.22
2018-12-17T20:54:46.815Z,101838.20
2018-12-17T20:57:15.242Z,101838.53
2018-12-17T20:59:43.666Z,101843.98
2018-12-17T21:02:12.095Z,101837.06
2018-12-17T21:04:40.513Z,101835.64
2018-12-17T21:07:08.970Z,101835.44
2018-12-17T21:09:37.434Z,101836.83
2018-12-17T21:12:05.944Z,101837.86
2018-12-17T21:14:34.305Z,101838.62
2018-12-17T21:17:02.643Z,101834.92
2018-12-17T21:19:31.016Z,101842.86
2018-12-17T21:21:59.484Z,101843.02
2018-12-17T21:24:27.862Z,101846.75
2018-12-17T21:26:56.209Z,101847.13
2018-12-17T21:29:24.703Z,101851.55
2018-12-17T21:31:53.021Z,101854.70
2018-12-17T21:34:22.286Z,101848.93
2018-12-17T21:36:50.841Z,101855.28
2018-12-17T21:39:19.177Z,101851.27
2018-12-17T21:41:47.516Z,101852.83
2018-12-17T21:44:15.880Z,101855.66
2018-12-17T21:46:44.200Z,101855.64
2018-12-17T21:49:12.641Z,101856.17
2018-12-17T21:51:40.986Z,101855.34
2018-12-17T21:54:09.335Z,101858.97
2018-12-17T21:56:37.659Z,101862.95
2018-12-17T21:59:06.028Z,101856.47
2018-12-17T22:01:34.340Z,101852.51
2018-12-17T22:04:02.691Z,101859.17
2018-12-17T22:06:31.042Z,101868.77
2018-12-17T22:08:59.381Z,101865.66
2018-12-17T22:11:27.698Z,101870.88
2018-12-17T22:13:56.102Z,101873.95
2018-12-17T22:16:24.477Z,101873.94
2018-12-17T22:18:52.867Z,101876.96
2018-12-17T22:21:21.203Z,101882.09
2018-12-17T22:23:49.572Z,101881.18
2018-12-17T22:26:17.971Z,101879.89
2018-12-17T22:28:46.323Z,101884.28
2018-12-17T22:31:14.705Z,101879.92
2018-12-17T22:33:43.054Z,101889.88
2018-12-17T22:36:11.360Z,101891.84
2018-12-17T22:38:39.724Z,101892.56
2018-12-17T22:41:08.114Z,101897.23
2018-12-17T22:43:36.404Z,101892.80
2018-12-17T22:46:04.880Z,101899.95
2018-12-17T22:48:33.200Z,101899.19
2018-12-17T22:51:01.615Z,101902.24
2018-12-17T22:53:29.923Z,101893.06
2018-12-17T22:55:58.252Z,101901.39
2018-12-17T22:58:26.579Z,101900.42
2018-12-17T23:00:54.919Z,101901.91
2018-12-17T23:03:26.319Z,101898.95
2018-12-17T23:05:53.620Z,101896.78
2018-12-17T23:08:21.960Z,101895.01
2018-12-17T23:11:08.087Z,101892.72
2018-12-17T23:13:54.315Z,101891.30
2018-12-17T23:16:40.460Z,101895.56
2018-12-17T23:19:08.084Z,101892.53
2018-12-17T23:21:36.411Z,101893.77
2018-12-17T23:24:04.862Z,101894.84
2018-12-17T23:26:33.255Z,101891.06
2018-12-17T23:29:01.619Z,101890.34
2018-12-17T23:31:30.157Z,101886.80
2018-12-17T23:33:58.556Z,101887.77
2018-12-17T23:36:26.891Z,101889.05
2018-12-17T23:38:55.264Z,101883.11
2018-12-17T23:41:23.582Z,101875.88
2018-12-17T23:43:51.915Z,101881.27
2018-12-17T23:46:20.676Z,101874.44
2018-12-17T23:48:49.035Z,101877.17
2018-12-17T23:51:17.599Z,101885.66
2018-12-17T23:53:46.021Z,101869.81
2018-12-17T23:56:14.390Z,101874.47
2018-12-17T23:58:42.770Z,101868.35
